2G9

Somerset County Airport

Somerset, Pennsylvania, USA
METAR K2G9 211755Z AUTO 06003KT 10SM OVC005 17/17 A2990 RMK AO2
Observed Flight Rules
Jun-21 @ 17:55 UTC (15 minutes ago) Instrument Flight Rules
Wind Visibility Clouds
60° at 3 knots 10 miles
  • Overcast at 500' AGL
Temperatures Readings
Current 17°C / 63°F
Dewpoint 17°C / 63°F
Humidity 100%
Altimeter 29.9" Hg
Pressure 1013 hPa
Elevation 693
METAR K2G9 211755Z AUTO 06003KT 10SM OVC005 17/17 A2990 RMK AO2
Observed Flight Rules
Jun-21 @ 17:55 UTC
(15 minutes ago)
IFR
Wind Visibility
60° at 3 knots 10 miles
Clouds
  • Overcast at 500' AGL
Temperature Dewpoint
17°C / 63°F 17°C / 63°F
Humidity Altimeter Pressure
100% 29.9" Hg 1013 hPa